Time;durP1;ratioP1;P1;durP2;ratioP2;P2;SDS_P1;SDS_P2;PMS_P1;PMS_P2;Temp;Humidity;BMP_temperature;BMP_pressure;BME280_temperature;BME280_humidity;BME280_pressure;Samples;Min_cycle;Max_cycle;Signal;HPM_P1;HPM_P2
2023/10/30 00:00:29;;;;;;;3.53;1.60;;;12.70;99.90;;;;;;5029147;28;20402;-40
2023/10/30 00:02:56;;;;;;;3.80;1.42;;;12.70;99.90;;;;;;5036042;28;20045;-40
2023/10/30 00:05:23;;;;;;;3.95;1.65;;;12.70;99.90;;;;;;5028443;28;20046;-39
2023/10/30 00:07:50;;;;;;;3.10;1.40;;;12.60;99.90;;;;;;5032307;28;20052;-37
2023/10/30 00:10:17;;;;;;;3.90;1.83;;;12.60;99.90;;;;;;5031340;28;20046;-39
2023/10/30 00:12:44;;;;;;;4.07;1.75;;;12.60;99.90;;;;;;5037886;28;20123;-38
2023/10/30 00:15:12;;;;;;;2.58;1.30;;;12.60;99.90;;;;;;5034056;28;20434;-38
2023/10/30 00:17:39;;;;;;;4.25;1.65;;;12.60;99.90;;;;;;5032985;28;20046;-36
2023/10/30 00:20:07;;;;;;;3.55;1.42;;;12.60;99.90;;;;;;5034402;28;20046;-38
2023/10/30 00:22:34;;;;;;;3.38;1.60;;;12.60;99.90;;;;;;5032968;28;20050;-36
2023/10/30 00:25:02;;;;;;;3.35;1.55;;;12.50;99.90;;;;;;5031892;28;20052;-38
2023/10/30 00:27:29;;;;;;;4.32;1.88;;;12.50;99.90;;;;;;5037635;28;20041;-39
2023/10/30 00:29:56;;;;;;;4.63;1.77;;;12.60;99.90;;;;;;5034665;28;20360;-38
2023/10/30 00:32:23;;;;;;;4.70;2.00;;;12.60;99.90;;;;;;5032325;28;20060;-38
2023/10/30 00:34:50;;;;;;;3.67;1.80;;;12.50;99.90;;;;;;5031143;28;20136;-39
2023/10/30 00:37:17;;;;;;;5.22;2.08;;;12.50;99.90;;;;;;5035106;28;20521;-37
2023/10/30 00:39:45;;;;;;;4.43;2.00;;;12.50;99.90;;;;;;5031230;28;20053;-37
2023/10/30 00:42:12;;;;;;;3.50;1.90;;;12.60;99.90;;;;;;5030354;28;20564;-35
2023/10/30 00:44:39;;;;;;;4.22;1.88;;;12.60;99.90;;;;;;5033686;28;20101;-36
2023/10/30 00:47:06;;;;;;;5.63;2.60;;;12.60;99.90;;;;;;5041808;28;20040;-38
2023/10/30 00:49:33;;;;;;;4.20;2.35;;;12.60;99.90;;;;;;5044902;28;20060;-40
2023/10/30 00:52:00;;;;;;;5.65;2.00;;;12.70;99.90;;;;;;5043989;28;20045;-40
2023/10/30 00:54:27;;;;;;;4.50;2.10;;;12.60;99.90;;;;;;5035439;28;20047;-39
2023/10/30 00:56:54;;;;;;;5.90;2.45;;;12.60;99.90;;;;;;5031373;28;20045;-38
2023/10/30 00:59:22;;;;;;;3.78;2.30;;;12.60;99.90;;;;;;5030848;28;20045;-37
2023/10/30 01:01:49;;;;;;;5.63;2.20;;;12.60;99.90;;;;;;5028165;28;20045;-39
2023/10/30 01:04:16;;;;;;;5.70;1.88;;;12.50;99.90;;;;;;5028933;28;20423;-36
2023/10/30 01:06:43;;;;;;;4.50;1.90;;;12.50;99.90;;;;;;5027308;28;20056;-40
2023/10/30 01:09:11;;;;;;;3.97;2.30;;;12.50;99.90;;;;;;5028779;28;20072;-37
2023/10/30 01:11:38;;;;;;;3.80;2.10;;;12.50;99.90;;;;;;5041211;28;20050;-40
2023/10/30 01:14:05;;;;;;;4.30;2.30;;;12.50;99.90;;;;;;5045975;28;20129;-37
2023/10/30 01:16:32;;;;;;;4.43;2.40;;;12.50;99.90;;;;;;5045099;28;20045;-40
2023/10/30 01:18:59;;;;;;;4.15;2.00;;;12.40;99.90;;;;;;5030878;28;20495;-38
2023/10/30 01:21:26;;;;;;;6.22;2.53;;;12.40;99.90;;;;;;5033430;28;20057;-40
2023/10/30 01:23:53;;;;;;;5.70;2.60;;;12.40;99.90;;;;;;5032414;28;20487;-40
2023/10/30 01:26:20;;;;;;;4.00;2.30;;;12.30;99.90;;;;;;5030352;28;20049;-37
2023/10/30 01:28:47;;;;;;;5.35;2.40;;;12.30;99.90;;;;;;5030690;28;20045;-36
2023/10/30 01:31:14;;;;;;;5.28;2.58;;;12.30;99.90;;;;;;5030905;28;20060;-39
2023/10/30 01:33:41;;;;;;;5.68;2.70;;;12.30;99.90;;;;;;5034056;28;20053;-37
2023/10/30 01:36:09;;;;;;;6.22;2.60;;;12.30;99.90;;;;;;5030584;28;20714;-36
2023/10/30 01:38:36;;;;;;;5.13;2.50;;;12.20;99.90;;;;;;5028845;28;20049;-37
2023/10/30 01:41:05;;;;;;;4.22;2.60;;;12.20;99.90;;;;;;5032019;28;20057;-38
2023/10/30 01:43:32;;;;;;;4.45;2.40;;;12.20;99.90;;;;;;5030306;28;20048;-37
2023/10/30 01:46:00;;;;;;;4.95;2.60;;;12.20;99.90;;;;;;5032991;28;20037;-37
2023/10/30 01:48:33;;;;;;;4.25;2.30;;;12.20;99.90;;;;;;5030696;28;20038;-38
2023/10/30 01:51:02;;;;;;;4.43;2.55;;;12.20;99.90;;;;;;5039644;28;20069;-40
2023/10/30 01:53:31;;;;;;;4.68;2.35;;;12.20;99.90;;;;;;5045985;28;20056;-38
2023/10/30 01:56:00;;;;;;;4.40;2.80;;;12.20;99.90;;;;;;5036767;28;20148;-40
2023/10/30 01:58:28;;;;;;;10.00;2.45;;;12.20;99.90;;;;;;5031602;28;20502;-38
2023/10/30 02:00:57;;;;;;;4.75;2.67;;;12.20;99.90;;;;;;5031039;28;20050;-39
2023/10/30 02:03:24;;;;;;;7.18;2.83;;;12.20;99.90;;;;;;5032308;28;20064;-39
2023/10/30 02:05:53;;;;;;;5.78;3.03;;;12.20;99.90;;;;;;5032230;28;20128;-41
2023/10/30 02:08:21;;;;;;;6.43;2.60;;;12.20;99.90;;;;;;5031787;28;20044;-37
2023/10/30 02:10:48;;;;;;;4.82;2.72;;;12.20;99.90;;;;;;5031704;28;20132;-39
2023/10/30 02:13:16;;;;;;;5.55;2.55;;;12.20;99.90;;;;;;5029996;28;20041;-41
2023/10/30 02:15:43;;;;;;;5.68;2.40;;;12.20;99.90;;;;;;5029790;28;20058;-39
2023/10/30 02:18:11;;;;;;;6.15;2.28;;;12.20;99.90;;;;;;5031258;28;20095;-37
2023/10/30 02:20:40;;;;;;;4.38;2.50;;;12.20;99.90;;;;;;5031605;28;20053;-39
2023/10/30 02:23:07;;;;;;;5.20;2.50;;;12.20;99.90;;;;;;5030891;28;20037;-36
2023/10/30 02:25:34;;;;;;;3.60;2.20;;;12.20;99.90;;;;;;5031868;28;20045;-38
2023/10/30 02:28:01;;;;;;;3.47;2.38;;;12.20;99.90;;;;;;5036541;28;20056;-37
2023/10/30 02:30:28;;;;;;;4.07;2.50;;;12.20;99.90;;;;;;5031555;28;20107;-39
2023/10/30 02:32:55;;;;;;;6.32;2.53;;;12.20;99.90;;;;;;5031310;28;20084;-35
2023/10/30 02:35:23;;;;;;;6.85;2.60;;;12.20;99.90;;;;;;5025901;28;20126;-39
2023/10/30 02:37:50;;;;;;;3.88;2.38;;;12.20;99.90;;;;;;5031826;28;20049;-36
2023/10/30 02:40:17;;;;;;;6.38;2.65;;;12.30;99.90;;;;;;5031096;28;20128;-39
2023/10/30 02:42:45;;;;;;;6.25;2.58;;;12.20;99.90;;;;;;5032941;28;20293;-39
2023/10/30 02:45:12;;;;;;;5.95;2.42;;;12.20;99.90;;;;;;5029217;28;20421;-36
2023/10/30 02:47:39;;;;;;;5.03;2.22;;;12.20;99.90;;;;;;5029770;28;20208;-40
2023/10/30 02:50:07;;;;;;;5.85;2.10;;;12.20;99.90;;;;;;5029679;28;20046;-38
2023/10/30 02:52:36;;;;;;;4.13;1.98;;;12.10;99.90;;;;;;5035200;28;20045;-39
2023/10/30 02:55:04;;;;;;;3.95;1.98;;;12.10;99.90;;;;;;5031660;28;20045;-38
2023/10/30 02:57:32;;;;;;;3.67;1.90;;;12.10;99.90;;;;;;5032176;28;20038;-36
2023/10/30 02:59:59;;;;;;;5.40;2.10;;;12.10;99.90;;;;;;5030451;28;20144;-36
2023/10/30 03:02:26;;;;;;;5.00;2.15;;;12.00;99.90;;;;;;5030653;28;20447;-37
2023/10/30 03:04:53;;;;;;;3.42;1.65;;;12.00;99.90;;;;;;5030924;28;20103;-36
2023/10/30 03:07:20;;;;;;;3.20;2.00;;;12.00;99.90;;;;;;5032921;28;20049;-39
2023/10/30 03:09:49;;;;;;;3.75;1.83;;;11.90;99.90;;;;;;5036007;28;20385;-38
2023/10/30 03:12:17;;;;;;;3.63;1.85;;;11.90;99.90;;;;;;5047239;28;20048;-38
2023/10/30 03:14:44;;;;;;;7.00;2.33;;;11.90;99.90;;;;;;5048101;28;20063;-39
2023/10/30 03:17:11;;;;;;;4.22;2.33;;;11.90;99.90;;;;;;5033047;28;20061;-39
2023/10/30 03:19:38;;;;;;;6.10;2.42;;;11.90;99.90;;;;;;5031844;28;20046;-38
2023/10/30 03:22:05;;;;;;;6.05;2.58;;;11.90;99.90;;;;;;5030562;28;20049;-37
2023/10/30 03:24:33;;;;;;;5.43;2.45;;;11.90;99.90;;;;;;5030739;28;20053;-37
2023/10/30 03:27:00;;;;;;;6.15;1.83;;;11.90;99.90;;;;;;5025607;28;20045;-39
2023/10/30 03:29:27;;;;;;;3.95;2.03;;;11.80;99.90;;;;;;5032591;28;20045;-36
2023/10/30 03:31:55;;;;;;;3.60;1.90;;;11.90;99.90;;;;;;5033136;28;20041;-39
2023/10/30 03:34:22;;;;;;;5.63;2.50;;;11.90;99.90;;;;;;5031844;28;20327;-37
2023/10/30 03:36:50;;;;;;;6.40;2.53;;;11.80;99.90;;;;;;5030459;28;20059;-37
2023/10/30 03:39:17;;;;;;;5.53;2.55;;;11.80;99.90;;;;;;5031566;28;20108;-37
2023/10/30 03:41:44;;;;;;;4.72;2.88;;;11.80;99.90;;;;;;5035776;28;20056;-38
2023/10/30 03:44:11;;;;;;;5.10;2.95;;;11.70;99.90;;;;;;5039836;28;20068;-38
2023/10/30 03:46:39;;;;;;;6.65;3.17;;;11.70;99.90;;;;;;5031368;28;20042;-40
2023/10/30 03:49:09;;;;;;;4.93;2.90;;;11.70;99.90;;;;;;5029426;28;20045;-35
2023/10/30 03:51:36;;;;;;;5.40;2.40;;;11.60;99.90;;;;;;5025330;28;20045;-35
2023/10/30 03:54:03;;;;;;;5.03;2.70;;;11.60;99.90;;;;;;5025277;28;20107;-37
2023/10/30 03:56:30;;;;;;;6.68;3.78;;;11.50;99.90;;;;;;5028070;28;20045;-40
2023/10/30 03:58:57;;;;;;;4.90;3.35;;;11.40;99.90;;;;;;5027559;28;20513;-37
2023/10/30 04:01:25;;;;;;;5.35;3.22;;;11.30;99.90;;;;;;5029932;28;20079;-38
2023/10/30 04:03:54;;;;;;;8.27;5.35;;;11.30;99.90;;;;;;5027804;28;20053;-39
2023/10/30 04:06:21;;;;;;;8.07;4.63;;;11.20;99.90;;;;;;5029771;28;20498;-37
2023/10/30 04:08:48;;;;;;;7.50;3.65;;;11.10;99.90;;;;;;5027599;28;20034;-38
2023/10/30 04:11:17;;;;;;;4.82;2.75;;;11.10;99.90;;;;;;5030166;28;20418;-39
2023/10/30 04:13:44;;;;;;;5.35;2.97;;;11.00;99.90;;;;;;5022778;28;20092;-37
2023/10/30 04:16:15;;;;;;;5.63;3.10;;;11.00;99.90;;;;;;5030854;28;20081;-39
2023/10/30 04:18:42;;;;;;;6.22;2.95;;;10.90;99.90;;;;;;5028927;28;20068;-34
2023/10/30 04:21:09;;;;;;;4.75;2.50;;;10.90;99.90;;;;;;5028900;28;20060;-37
2023/10/30 04:23:38;;;;;;;3.58;2.08;;;10.90;99.90;;;;;;5025090;28;20088;-37
2023/10/30 04:26:05;;;;;;;4.40;2.42;;;10.90;99.90;;;;;;5029458;28;20056;-38
2023/10/30 04:28:32;;;;;;;3.80;2.17;;;10.90;99.90;;;;;;5028957;28;20524;-37
2023/10/30 04:31:01;;;;;;;5.25;2.42;;;10.80;99.90;;;;;;5030246;28;20072;-37
2023/10/30 04:33:28;;;;;;;4.43;2.55;;;10.90;99.90;;;;;;5031108;28;20053;-38
2023/10/30 04:35:54;;;;;;;4.63;2.38;;;10.90;99.90;;;;;;5029215;28;20045;-36
2023/10/30 04:38:24;;;;;;;6.47;2.47;;;10.80;99.90;;;;;;5038829;28;20061;-38
2023/10/30 04:40:51;;;;;;;4.63;2.58;;;10.80;99.90;;;;;;5042388;28;20041;-41
2023/10/30 04:43:18;;;;;;;4.15;2.28;;;10.70;99.90;;;;;;5034540;28;20049;-39
2023/10/30 04:45:45;;;;;;;5.10;2.38;;;10.70;99.90;;;;;;5023423;28;20140;-39
2023/10/30 04:48:12;;;;;;;4.15;2.45;;;10.70;99.90;;;;;;5026552;28;20465;-39
2023/10/30 04:50:39;;;;;;;4.43;2.50;;;10.60;99.90;;;;;;5028078;28;20136;-40
2023/10/30 04:53:06;;;;;;;4.80;2.60;;;10.60;99.90;;;;;;5029008;28;20060;-37
2023/10/30 04:55:34;;;;;;;4.07;2.58;;;10.50;99.90;;;;;;5027692;28;20056;-38
2023/10/30 04:58:01;;;;;;;6.13;2.75;;;10.50;99.90;;;;;;5024597;28;20038;-40
2023/10/30 05:00:28;;;;;;;5.60;2.90;;;10.40;99.90;;;;;;5030076;28;20123;-39
2023/10/30 05:02:55;;;;;;;4.13;2.58;;;10.40;99.90;;;;;;5027442;28;20061;-40
2023/10/30 05:05:22;;;;;;;6.28;2.85;;;10.40;99.90;;;;;;5028107;28;20053;-36
2023/10/30 05:07:49;;;;;;;4.57;2.67;;;10.40;99.90;;;;;;5030357;28;20582;-37
2023/10/30 05:10:16;;;;;;;5.53;2.90;;;10.40;99.90;;;;;;5028761;28;20097;-40
2023/10/30 05:12:43;;;;;;;6.82;3.35;;;10.30;99.90;;;;;;5028955;28;20048;-40
2023/10/30 05:15:11;;;;;;;6.82;3.30;;;10.30;99.90;;;;;;5028498;28;20069;-39
2023/10/30 05:17:38;;;;;;;5.80;3.10;;;10.30;99.90;;;;;;5028569;28;20045;-40
2023/10/30 05:20:06;;;;;;;5.80;3.40;;;10.30;99.90;;;;;;5029889;28;20033;-39
2023/10/30 05:22:33;;;;;;;6.00;2.83;;;10.30;99.90;;;;;;5027129;28;20136;-38
2023/10/30 05:25:02;;;;;;;5.57;3.25;;;10.20;99.90;;;;;;5023648;28;20041;-37
2023/10/30 05:27:30;;;;;;;5.32;3.22;;;10.20;99.90;;;;;;5030282;28;20288;-40
2023/10/30 05:29:58;;;;;;;6.28;3.13;;;10.20;99.90;;;;;;5029360;28;20068;-40
2023/10/30 05:32:25;;;;;;;6.22;3.03;;;10.20;99.90;;;;;;5030263;28;20237;-39
2023/10/30 05:34:53;;;;;;;6.40;3.17;;;10.10;99.90;;;;;;5028574;28;20712;-38
2023/10/30 05:37:20;;;;;;;5.50;3.10;;;10.10;99.90;;;;;;5029129;28;20049;-36
2023/10/30 05:39:49;;;;;;;5.40;2.90;;;10.10;99.90;;;;;;5029646;28;20538;-39
2023/10/30 05:42:17;;;;;;;8.90;3.35;;;10.00;99.90;;;;;;5031983;28;20049;-40
2023/10/30 05:44:45;;;;;;;5.32;3.00;;;10.00;99.90;;;;;;5040748;28;20041;-41
2023/10/30 05:47:13;;;;;;;7.85;3.75;;;10.00;99.90;;;;;;5039695;28;20037;-40
2023/10/30 05:49:40;;;;;;;7.93;3.70;;;10.00;99.90;;;;;;5031101;28;20075;-38
2023/10/30 05:52:09;;;;;;;7.80;3.10;;;10.00;99.90;;;;;;5028446;28;20128;-38
2023/10/30 05:54:37;;;;;;;7.38;3.10;;;10.00;99.90;;;;;;5033112;28;20125;-38
2023/10/30 05:57:05;;;;;;;9.05;3.58;;;10.00;99.90;;;;;;5029237;28;20041;-39
2023/10/30 05:59:32;;;;;;;7.72;3.25;;;10.00;99.90;;;;;;5030905;28;20105;-39
2023/10/30 06:01:59;;;;;;;6.72;3.67;;;10.00;99.90;;;;;;5030691;28;20525;-40
2023/10/30 06:04:26;;;;;;;7.63;3.92;;;10.00;99.90;;;;;;5030585;28;20041;-39
2023/10/30 06:06:54;;;;;;;8.32;3.70;;;10.00;99.90;;;;;;5030763;28;20089;-39
2023/10/30 06:09:21;;;;;;;6.30;3.78;;;10.00;99.90;;;;;;5041406;28;20140;-38
2023/10/30 06:11:49;;;;;;;7.60;3.78;;;10.00;99.90;;;;;;5040494;28;20054;-37
2023/10/30 06:14:17;;;;;;;8.40;4.32;;;10.00;99.90;;;;;;5040726;28;20045;-39
2023/10/30 06:16:45;;;;;;;12.27;6.55;;;10.00;99.90;;;;;;5032918;28;20129;-38
2023/10/30 06:19:12;;;;;;;9.68;3.97;;;10.00;99.90;;;;;;5025538;28;20045;-36
2023/10/30 06:21:40;;;;;;;6.57;3.58;;;10.00;99.90;;;;;;5037959;28;20052;-39
2023/10/30 06:24:07;;;;;;;6.88;3.17;;;10.00;99.90;;;;;;5043203;28;20120;-39
2023/10/30 06:26:38;;;;;;;6.85;3.15;;;10.00;99.90;;;;;;5045588;28;20095;-40
2023/10/30 06:29:05;;;;;;;4.25;2.38;;;10.00;99.90;;;;;;5048286;28;20045;-39
2023/10/30 06:31:32;;;;;;;6.28;3.05;;;10.00;99.90;;;;;;5036720;28;20038;-37
2023/10/30 06:34:00;;;;;;;6.10;3.20;;;10.00;99.90;;;;;;5034250;28;20060;-40
2023/10/30 06:36:27;;;;;;;5.38;2.70;;;10.10;99.90;;;;;;5036145;28;20125;-38
2023/10/30 06:38:57;;;;;;;6.00;2.90;;;10.20;99.90;;;;;;5035341;28;20057;-39
2023/10/30 06:41:24;;;;;;;8.80;4.13;;;10.20;99.90;;;;;;5035471;28;20045;-38
2023/10/30 06:43:51;;;;;;;12.15;7.32;;;10.30;99.90;;;;;;5043177;28;20082;-42
2023/10/30 06:46:18;;;;;;;8.27;4.85;;;10.30;99.90;;;;;;5045774;28;20065;-39
2023/10/30 06:48:46;;;;;;;9.38;4.85;;;10.40;99.90;;;;;;5032561;28;20627;-41
2023/10/30 06:51:13;;;;;;;9.85;3.45;;;10.50;99.90;;;;;;5032070;28;20049;-41
2023/10/30 06:53:40;;;;;;;6.03;3.00;;;10.50;99.90;;;;;;5032512;28;20041;-40
2023/10/30 06:56:07;;;;;;;8.40;3.65;;;10.50;99.90;;;;;;5034194;28;20068;-40
2023/10/30 06:58:34;;;;;;;6.85;3.92;;;10.50;99.90;;;;;;5034250;28;20040;-39
2023/10/30 07:01:05;;;;;;;7.38;3.80;;;10.60;99.90;;;;;;5036700;28;20042;-40
2023/10/30 07:03:35;;;;;;;5.35;2.47;;;10.70;99.90;;;;;;5041946;28;20133;-38
2023/10/30 07:06:03;;;;;;;6.38;2.33;;;10.70;99.90;;;;;;5041704;28;20045;-39
2023/10/30 07:08:30;;;;;;;6.47;3.83;;;10.80;99.90;;;;;;5037773;28;20164;-40
2023/10/30 07:10:57;;;;;;;5.60;2.95;;;10.80;99.90;;;;;;5034312;28;20037;-40
2023/10/30 07:13:24;;;;;;;6.55;2.65;;;10.80;99.90;;;;;;5032601;28;20129;-37
2023/10/30 07:15:51;;;;;;;7.07;2.80;;;10.90;99.90;;;;;;5033180;28;20060;-40
2023/10/30 07:18:18;;;;;;;8.20;2.60;;;11.00;99.90;;;;;;5035703;28;20049;-40
2023/10/30 07:20:46;;;;;;;5.15;2.40;;;11.00;99.90;;;;;;5035679;28;20121;-40
2023/10/30 07:23:13;;;;;;;6.60;2.97;;;11.10;99.90;;;;;;5036535;28;20065;-39
2023/10/30 07:25:40;;;;;;;6.32;3.90;;;11.20;99.90;;;;;;5032200;28;20056;-38
2023/10/30 07:28:07;;;;;;;11.30;6.60;;;11.30;99.90;;;;;;5031203;28;20056;-38
2023/10/30 07:30:34;;;;;;;7.97;4.35;;;11.40;99.90;;;;;;5030133;28;20057;-37
2023/10/30 07:33:02;;;;;;;6.90;3.00;;;11.50;99.90;;;;;;5031855;28;20034;-38
2023/10/30 07:35:31;;;;;;;9.15;3.30;;;11.60;99.90;;;;;;5030499;28;20087;-38
2023/10/30 07:37:58;;;;;;;4.13;2.67;;;11.60;99.90;;;;;;5030972;28;20107;-37
2023/10/30 07:40:26;;;;;;;7.63;2.33;;;11.60;99.90;;;;;;5031048;28;20045;-38
2023/10/30 07:42:54;;;;;;;6.10;2.72;;;11.60;99.90;;;;;;5030502;28;20054;-37
2023/10/30 07:45:22;;;;;;;10.02;5.60;;;11.70;99.90;;;;;;5030331;28;20620;-38
2023/10/30 07:47:49;;;;;;;8.05;3.67;;;11.70;99.90;;;;;;5027270;28;20051;-37
2023/10/30 07:50:18;;;;;;;6.38;3.05;;;11.90;99.90;;;;;;5029655;28;20049;-39
2023/10/30 07:52:45;;;;;;;5.03;2.30;;;11.90;99.90;;;;;;5026387;28;20195;-36
2023/10/30 07:55:12;;;;;;;4.07;1.92;;;12.00;99.90;;;;;;5027541;28;20518;-39
2023/10/30 07:57:40;;;;;;;4.97;2.10;;;12.10;99.90;;;;;;5032450;28;20150;-40
2023/10/30 08:00:08;;;;;;;5.38;2.28;;;12.10;99.90;;;;;;5029186;28;20045;-40
2023/10/30 08:02:41;;;;;;;5.10;2.20;;;12.20;99.90;;;;;;5033330;28;20045;-39
2023/10/30 08:05:08;;;;;;;4.07;2.22;;;12.20;99.90;;;;;;5029939;28;20160;-39
2023/10/30 08:07:36;;;;;;;3.58;1.90;;;12.30;99.90;;;;;;5029458;28;20060;-38
2023/10/30 08:10:04;;;;;;;5.70;2.08;;;12.30;99.90;;;;;;5029769;28;20053;-38
2023/10/30 08:12:31;;;;;;;4.50;2.00;;;12.40;99.90;;;;;;5028165;28;20129;-39
2023/10/30 08:14:59;;;;;;;6.07;3.20;;;12.50;99.90;;;;;;5022953;28;20045;-41
2023/10/30 08:17:27;;;;;;;6.65;2.85;;;12.60;99.90;;;;;;5023041;28;20038;-38
2023/10/30 08:19:54;;;;;;;7.30;4.78;;;12.70;99.90;;;;;;5027213;28;20200;-38
2023/10/30 08:22:21;;;;;;;10.02;5.18;;;12.70;99.90;;;;;;5025308;28;20037;-38
2023/10/30 08:24:49;;;;;;;12.18;7.63;;;12.80;99.90;;;;;;5026764;28;20049;-39
2023/10/30 08:27:16;;;;;;;8.45;4.57;;;12.90;99.90;;;;;;5021760;28;20598;-39
2023/10/30 08:29:43;;;;;;;5.95;3.33;;;13.00;99.90;;;;;;5026691;28;20037;-40
2023/10/30 08:32:10;;;;;;;6.40;3.20;;;13.10;99.90;;;;;;5029285;28;20041;-39
2023/10/30 08:34:37;;;;;;;7.53;2.88;;;13.20;99.90;;;;;;5034776;28;20041;-40
2023/10/30 08:37:04;;;;;;;4.15;2.50;;;13.40;99.90;;;;;;5033575;28;20199;-38
2023/10/30 08:39:31;;;;;;;5.00;2.75;;;13.50;99.90;;;;;;5025604;28;20038;-39
2023/10/30 08:41:58;;;;;;;6.65;2.70;;;13.60;99.90;;;;;;5027459;28;20073;-39
2023/10/30 08:44:25;;;;;;;5.63;2.83;;;13.80;99.90;;;;;;5028739;28;20042;-38
2023/10/30 08:46:56;;;;;;;6.00;2.88;;;13.80;99.90;;;;;;5020559;28;20128;-40
2023/10/30 08:49:23;;;;;;;4.00;2.03;;;14.00;99.90;;;;;;5028374;28;20099;-37
2023/10/30 08:51:50;;;;;;;5.22;2.70;;;14.00;99.90;;;;;;5025496;28;20045;-40
2023/10/30 08:54:30;;;;;;;8.60;3.08;;;14.10;99.90;;;;;;5029575;28;20056;-38
2023/10/30 08:56:57;;;;;;;6.32;4.25;;;14.30;99.90;;;;;;5025038;28;20431;-38
2023/10/30 08:59:38;;;;;;;11.32;5.82;;;14.40;99.90;;;;;;5027081;28;20100;-39
2023/10/30 09:02:07;;;;;;;12.15;5.47;;;14.60;99.90;;;;;;5030491;28;20045;-37
2023/10/30 09:04:36;;;;;;;10.95;6.88;;;14.70;99.90;;;;;;5023967;28;20144;-38
2023/10/30 09:07:04;;;;;;;8.95;3.33;;;14.70;99.90;;;;;;5027812;28;20394;-36
2023/10/30 09:09:32;;;;;;;5.68;3.38;;;14.80;99.90;;;;;;5033925;28;20042;-37
2023/10/30 09:12:00;;;;;;;5.53;2.95;;;15.00;99.90;;;;;;5038594;28;20048;-38
2023/10/30 09:14:27;;;;;;;6.43;3.17;;;15.00;99.90;;;;;;5027516;28;20424;-39
2023/10/30 09:16:54;;;;;;;5.70;3.35;;;15.10;99.90;;;;;;5029033;28;20731;-40
2023/10/30 09:19:21;;;;;;;5.45;3.05;;;15.10;99.90;;;;;;5029565;28;20128;-39
2023/10/30 09:21:48;;;;;;;6.18;3.75;;;15.20;99.90;;;;;;5023903;28;20064;-38
2023/10/30 09:24:15;;;;;;;7.03;3.58;;;15.40;99.90;;;;;;5032219;28;20052;-38
2023/10/30 09:26:43;;;;;;;11.48;4.50;;;15.60;99.90;;;;;;5027561;28;20091;-37
2023/10/30 09:29:10;;;;;;;5.68;3.28;;;15.70;99.90;;;;;;5026249;28;20053;-39
2023/10/30 09:31:37;;;;;;;6.57;3.55;;;15.80;99.90;;;;;;5025476;28;20037;-37
2023/10/30 09:34:04;;;;;;;5.55;3.70;;;15.90;99.90;;;;;;5026607;28;20044;-38
2023/10/30 09:36:31;;;;;;;6.20;3.70;;;16.00;99.90;;;;;;5028579;28;20049;-41
2023/10/30 09:38:58;;;;;;;6.00;3.03;;;16.20;99.90;;;;;;5030692;28;20280;-40
2023/10/30 09:41:28;;;;;;;6.75;3.55;;;16.30;99.90;;;;;;5035235;28;20560;-39
2023/10/30 09:43:58;;;;;;;4.43;2.95;;;16.40;99.90;;;;;;5032539;28;20094;-38
2023/10/30 09:46:28;;;;;;;4.00;2.65;;;16.50;99.90;;;;;;5026826;28;20410;-37
2023/10/30 09:48:57;;;;;;;3.77;2.43;;;16.70;99.90;;;;;;5028373;28;20363;-39
2023/10/30 09:51:26;;;;;;;4.15;2.60;;;16.80;99.90;;;;;;5027578;28;20041;-41
2023/10/30 09:53:54;;;;;;;4.18;2.20;;;16.90;99.90;;;;;;5028364;28;20071;-37
2023/10/30 09:56:25;;;;;;;5.45;2.47;;;17.10;99.90;;;;;;5027528;28;20049;-40
2023/10/30 09:58:52;;;;;;;3.60;2.50;;;17.10;99.90;;;;;;5027827;28;20053;-40
2023/10/30 10:01:20;;;;;;;6.07;2.75;;;17.30;99.90;;;;;;5031289;28;20056;-40
2023/10/30 10:03:48;;;;;;;3.95;2.20;;;17.50;99.90;;;;;;5031624;28;20056;-38
2023/10/30 10:06:16;;;;;;;6.03;2.40;;;17.50;99.90;;;;;;5030958;28;20474;-37
2023/10/30 10:08:43;;;;;;;5.60;2.80;;;17.60;99.90;;;;;;5032241;28;20076;-40
2023/10/30 10:11:11;;;;;;;6.47;2.75;;;17.70;99.90;;;;;;5033451;28;20046;-38
2023/10/30 10:13:40;;;;;;;4.60;3.00;;;17.90;99.90;;;;;;5040236;28;20095;-40
2023/10/30 10:16:31;;;;;;;8.43;2.90;;;18.00;99.90;;;;;;5043931;28;20398;-40
2023/10/30 10:18:58;;;;;;;3.38;2.38;;;18.20;99.90;;;;;;5044265;28;20046;-41
2023/10/30 10:21:26;;;;;;;5.07;2.47;;;18.30;99.90;;;;;;5038738;28;20049;-38
2023/10/30 10:23:53;;;;;;;3.65;2.40;;;18.40;99.90;;;;;;5031574;28;20080;-41
2023/10/30 10:26:29;;;;;;;3.72;2.70;;;18.40;99.90;;;;;;5030815;28;20056;-41
2023/10/30 10:28:58;;;;;;;4.68;3.17;;;18.60;99.90;;;;;;5030671;28;20068;-40
2023/10/30 10:31:25;;;;;;;4.30;3.40;;;18.70;99.90;;;;;;5030006;28;20063;-40
2023/10/30 10:33:53;;;;;;;5.43;3.75;;;18.90;99.90;;;;;;5025816;28;20129;-41
2023/10/30 10:36:20;;;;;;;5.50;3.42;;;19.10;99.90;;;;;;5026096;28;20473;-38
2023/10/30 10:38:59;;;;;;;4.05;2.65;;;19.10;99.90;;;;;;5031941;28;20414;-38
2023/10/30 10:41:27;;;;;;;4.50;3.42;;;19.30;99.90;;;;;;5033334;28;20099;-40
2023/10/30 10:43:56;;;;;;;5.05;3.45;;;19.40;99.90;;;;;;5023895;28;20046;-39
2023/10/30 10:46:23;;;;;;;9.10;3.38;;;19.30;99.90;;;;;;5029083;28;20802;-41
2023/10/30 10:48:50;;;;;;;6.93;3.80;;;19.30;99.90;;;;;;5025445;28;20053;-38
2023/10/30 10:51:43;;;;;;;5.07;3.80;;;19.40;99.90;;;;;;5032628;28;20050;-37
2023/10/30 10:54:23;;;;;;;6.28;4.93;;;19.50;99.90;;;;;;5036156;28;20061;-38
2023/10/30 10:56:53;;;;;;;5.95;4.50;;;19.80;99.90;;;;;;5032521;28;20069;-41
2023/10/30 10:59:26;;;;;;;4.50;3.58;;;20.00;99.90;;;;;;5032819;28;20514;-40
2023/10/30 11:01:59;;;;;;;5.32;3.58;;;20.20;99.90;;;;;;5032513;28;20053;-40
2023/10/30 11:04:29;;;;;;;8.73;6.53;;;20.20;99.90;;;;;;5029190;28;20452;-40
2023/10/30 11:07:01;;;;;;;4.65;3.38;;;20.30;99.90;;;;;;5028333;28;20073;-36
2023/10/30 11:09:44;;;;;;;6.03;3.60;;;20.30;99.90;;;;;;5033624;28;20053;-41
2023/10/30 11:12:30;;;;;;;5.68;4.28;;;20.30;99.90;;;;;;5030777;28;20051;-37
2023/10/30 11:15:25;;;;;;;6.80;4.20;;;20.30;99.90;;;;;;5034119;28;20056;-39
2023/10/30 11:18:18;;;;;;;5.45;3.80;;;20.40;99.90;;;;;;5026045;28;20057;-38
2023/10/30 11:20:47;;;;;;;4.80;3.95;;;20.40;99.90;;;;;;5032582;28;20417;-41
2023/10/30 11:23:53;;;;;;;5.85;4.10;;;20.40;99.90;;;;;;5032451;28;20100;-37
2023/10/30 11:26:29;;;;;;;4.13;3.25;;;20.50;99.90;;;;;;5040076;28;20105;-39
2023/10/30 11:29:00;;;;;;;5.25;3.28;;;20.70;99.90;;;;;;5032225;28;20046;-41
2023/10/30 11:31:32;;;;;;;5.32;3.28;;;20.70;99.90;;;;;;5034437;28;20096;-39
2023/10/30 11:34:33;;;;;;;8.05;5.25;;;20.70;99.90;;;;;;5034459;28;20048;-39
2023/10/30 11:37:21;;;;;;;4.35;3.05;;;20.90;99.90;;;;;;5042220;28;20067;-40
2023/10/30 11:39:49;;;;;;;4.72;3.20;;;21.50;99.90;;;;;;5026199;28;20050;-40
2023/10/30 11:42:22;;;;;;;5.47;3.15;;;22.00;99.90;;;;;;5033096;28;20045;-37
2023/10/30 11:44:50;;;;;;;3.95;2.92;;;22.50;99.90;;;;;;5028730;28;20490;-40
2023/10/30 11:47:24;;;;;;;3.22;2.70;;;23.00;99.90;;;;;;5030659;28;20034;-40
2023/10/30 11:49:58;;;;;;;3.50;3.20;;;23.30;99.90;;;;;;5033640;28;20050;-39
2023/10/30 11:52:25;;;;;;;4.05;3.30;;;23.60;99.90;;;;;;5034735;28;20038;-39
2023/10/30 11:54:53;;;;;;;3.47;2.88;;;23.80;99.90;;;;;;5032419;28;20049;-38
2023/10/30 11:57:22;;;;;;;4.10;3.17;;;23.60;99.90;;;;;;5036477;28;20041;-37
2023/10/30 11:59:50;;;;;;;3.83;3.50;;;23.70;99.90;;;;;;5036044;28;20120;-41
2023/10/30 12:02:17;;;;;;;3.45;3.15;;;23.70;99.90;;;;;;5032184;28;20053;-39
2023/10/30 12:04:45;;;;;;;4.88;3.35;;;23.60;99.90;;;;;;5032026;28;20053;-42
2023/10/30 12:07:14;;;;;;;4.75;3.85;;;23.20;99.90;;;;;;5022736;28;20050;-38
2023/10/30 12:09:41;;;;;;;5.88;3.70;;;22.80;99.90;;;;;;5031735;28;20045;-38
2023/10/30 12:12:08;;;;;;;5.50;3.55;;;22.40;99.90;;;;;;5031262;28;20050;-42
2023/10/30 12:14:35;;;;;;;10.82;3.70;;;22.00;99.90;;;;;;5029098;28;20041;-38
2023/10/30 12:17:04;;;;;;;6.95;4.30;;;21.50;99.90;;;;;;5030631;28;20502;-39
2023/10/30 12:19:31;;;;;;;9.15;6.78;;;21.20;99.90;;;;;;5030904;28;20137;-41
2023/10/30 12:21:59;;;;;;;5.78;3.78;;;20.90;99.90;;;;;;5030679;28;20437;-41
2023/10/30 12:24:26;;;;;;;6.82;3.90;;;20.60;99.90;;;;;;5031572;28;20033;-37
2023/10/30 12:26:53;;;;;;;4.30;3.90;;;20.40;99.90;;;;;;5034842;28;20041;-40
2023/10/30 12:29:26;;;;;;;4.50;4.05;;;20.30;99.90;;;;;;5039047;28;20373;-40
2023/10/30 12:32:06;;;;;;;6.50;3.85;;;20.10;99.90;;;;;;5030781;28;20041;-40
2023/10/30 12:34:37;;;;;;;5.10;3.60;;;19.70;99.90;;;;;;5032113;28;20056;-38
2023/10/30 12:37:23;;;;;;;4.95;3.70;;;19.40;99.90;;;;;;5026707;28;20069;-39
2023/10/30 12:40:05;;;;;;;4.38;3.40;;;19.30;99.90;;;;;;5027181;28;20064;-40
2023/10/30 12:42:40;;;;;;;6.40;4.32;;;19.10;99.90;;;;;;5026018;28;20104;-41
2023/10/30 12:45:09;;;;;;;6.25;3.78;;;18.90;99.90;;;;;;5026281;28;20091;-40
2023/10/30 12:47:36;;;;;;;4.18;3.10;;;18.80;99.90;;;;;;5027016;28;20064;-39
2023/10/30 12:50:04;;;;;;;5.18;3.30;;;18.50;99.90;;;;;;5024019;28;20065;-38
2023/10/30 12:52:32;;;;;;;3.92;3.25;;;18.40;99.90;;;;;;5028229;28;20128;-41